createdAt,value
2018-08-21T00:02:00.148Z,18.64
2018-08-21T00:12:00.214Z,18.36
2018-08-21T00:22:00.106Z,18.19
2018-08-21T00:32:00.217Z,17.91
2018-08-21T00:42:00.379Z,17.87
2018-08-21T00:52:00.080Z,17.53
2018-08-21T01:02:00.237Z,17.38
2018-08-21T01:12:00.158Z,17.25
2018-08-21T01:22:06.594Z,17.04
2018-08-21T01:32:34.222Z,16.96
2018-08-21T01:42:00.071Z,16.78
2018-08-21T01:52:00.158Z,16.62
2018-08-21T02:02:00.139Z,16.23
2018-08-21T02:12:00.088Z,16.16
2018-08-21T02:22:00.145Z,16.27
2018-08-21T02:32:00.162Z,16.35
2018-08-21T02:42:00.180Z,16.09
2018-08-21T02:52:00.190Z,15.99
2018-08-21T03:02:00.124Z,16.01
2018-08-21T03:12:00.167Z,16.01
2018-08-21T03:22:00.137Z,15.79
2018-08-21T03:32:00.185Z,15.78
2018-08-21T03:42:00.156Z,15.59
2018-08-21T03:52:00.207Z,15.79
2018-08-21T04:02:00.130Z,15.76
2018-08-21T04:12:00.133Z,15.68
2018-08-21T04:22:00.256Z,15.79
2018-08-21T04:32:00.145Z,15.74
2018-08-21T04:42:00.156Z,15.67
2018-08-21T04:52:00.175Z,15.56
2018-08-21T05:02:00.126Z,15.7
2018-08-21T05:12:00.155Z,15.84
2018-08-21T05:22:00.312Z,15.99
2018-08-21T05:32:00.182Z,16.26
2018-08-21T05:42:00.240Z,16.71
2018-08-21T05:52:00.270Z,17.13
2018-08-21T06:02:00.185Z,17.81
2018-08-21T06:12:00.162Z,18.7
2018-08-21T06:22:00.146Z,19.94
2018-08-21T06:32:00.224Z,21.05
2018-08-21T06:42:00.167Z,22.22
2018-08-21T06:52:00.118Z,23.15
2018-08-21T07:02:00.170Z,24
2018-08-21T07:12:00.136Z,24.79
2018-08-21T07:22:00.188Z,25.49
2018-08-21T07:32:00.215Z,25.82
2018-08-21T07:42:00.193Z,26.01
2018-08-21T07:52:00.198Z,25.93
2018-08-21T08:02:00.183Z,25.98
2018-08-21T08:12:00.156Z,26.21
2018-08-21T08:22:00.202Z,26.52
2018-08-21T08:32:00.209Z,26.89
2018-08-21T08:42:00.309Z,27.1
2018-08-21T08:52:00.195Z,27.17
2018-08-21T09:02:00.182Z,27.06
2018-08-21T09:12:00.215Z,27.31
2018-08-21T09:22:00.209Z,27.14
2018-08-21T09:32:00.189Z,27.28
2018-08-21T09:42:00.211Z,27.48
2018-08-21T09:52:00.191Z,27.69
2018-08-21T10:02:00.221Z,27.71
2018-08-21T10:12:00.244Z,27.7
2018-08-21T10:22:00.221Z,27.5
2018-08-21T10:32:00.220Z,27.48
2018-08-21T10:42:00.221Z,27.82
2018-08-21T10:52:00.252Z,28.53
2018-08-21T11:02:00.252Z,28.95
2018-08-21T11:12:00.269Z,29.26
2018-08-21T11:22:00.218Z,29.33
2018-08-21T11:32:00.258Z,29.11
2018-08-21T11:42:00.270Z,28.82
2018-08-21T11:52:00.203Z,29.45
2018-08-21T12:02:00.285Z,29.5
2018-08-21T12:12:00.227Z,29.22
2018-08-21T12:22:00.246Z,28.69
2018-08-21T12:32:00.291Z,29.07
2018-08-21T12:42:00.475Z,28.5
2018-08-21T12:52:00.297Z,28.84
2018-08-21T13:02:00.296Z,29.25
2018-08-21T13:12:00.327Z,29.57
2018-08-21T13:22:00.392Z,30.15
2018-08-21T13:32:00.274Z,30.26
2018-08-21T13:42:00.274Z,30.37
2018-08-21T13:52:00.285Z,30.31
2018-08-21T14:02:00.337Z,30.12
2018-08-21T14:12:00.441Z,30
2018-08-21T14:22:00.381Z,29.84
2018-08-21T14:32:00.405Z,29.57
2018-08-21T14:42:00.353Z,29.19
2018-08-21T14:52:00.313Z,28.93
2018-08-21T15:02:00.305Z,28.9
2018-08-21T15:12:00.364Z,28.75
2018-08-21T15:22:00.326Z,28.56
2018-08-21T15:32:00.411Z,28.33
2018-08-21T15:42:00.301Z,27.89
2018-08-21T15:52:00.332Z,27.39
2018-08-21T16:02:00.363Z,27.2
2018-08-21T16:12:00.396Z,27.14
2018-08-21T16:22:00.332Z,27.11
2018-08-21T16:32:00.370Z,27.09
2018-08-21T16:42:00.368Z,26.91
2018-08-21T16:52:00.418Z,26.62
2018-08-21T17:02:00.527Z,26.46
2018-08-21T17:12:00.343Z,26.22
2018-08-21T17:22:00.423Z,25.83
2018-08-21T17:32:00.350Z,25.64
2018-08-21T17:42:00.410Z,25.43
2018-08-21T17:52:00.407Z,25.27
2018-08-21T18:02:00.373Z,25.05
2018-08-21T18:12:00.425Z,24.67
2018-08-21T18:22:00.333Z,24.45
2018-08-21T18:32:00.456Z,24.23
2018-08-21T18:42:00.377Z,24.16
2018-08-21T18:52:00.377Z,23.83
2018-08-21T19:02:00.394Z,23.47
2018-08-21T19:12:00.401Z,22.99
2018-08-21T19:22:00.470Z,22.39
2018-08-21T19:32:00.476Z,21.97
2018-08-21T19:42:00.392Z,21.54
2018-08-21T19:52:00.509Z,21.13
2018-08-21T20:02:00.423Z,20.83
2018-08-21T20:12:00.436Z,20.71
2018-08-21T20:22:00.472Z,20.42
2018-08-21T20:32:00.436Z,20.3
2018-08-21T20:42:00.395Z,20.42
2018-08-21T20:52:00.456Z,20.3
2018-08-21T21:02:00.380Z,20.31
2018-08-21T21:12:00.463Z,19.95
2018-08-21T21:22:00.434Z,19.68
2018-08-21T21:32:00.838Z,19.53
2018-08-21T21:42:00.470Z,19.33
2018-08-21T21:52:00.346Z,19.08
2018-08-21T22:02:00.445Z,19.24
2018-08-21T22:12:00.490Z,19.17
2018-08-21T22:22:00.477Z,18.98
2018-08-21T22:32:00.384Z,18.91
2018-08-21T22:42:00.389Z,18.87
2018-08-21T22:52:00.464Z,18.98
2018-08-21T23:02:00.468Z,18.86
2018-08-21T23:12:00.388Z,18.61
2018-08-21T23:22:00.465Z,18.61
2018-08-21T23:32:00.454Z,18.36
2018-08-21T23:42:00.398Z,18.27
2018-08-21T23:52:00.449Z,18.29
